createdAt,value
2023-02-01T00:00:26.566Z,96917.38
2023-02-01T00:01:28.144Z,96912.00
2023-02-01T00:02:29.850Z,96918.06
2023-02-01T00:03:31.434Z,96923.09
2023-02-01T00:04:33.042Z,96919.44
2023-02-01T00:05:34.573Z,96918.66
2023-02-01T00:06:36.181Z,96921.47
2023-02-01T00:07:38.505Z,96925.75
2023-02-01T00:08:40.096Z,96926.53
2023-02-01T00:09:41.613Z,96925.19
2023-02-01T00:10:43.126Z,96918.88
2023-02-01T00:11:44.898Z,96929.78
2023-02-01T00:12:46.514Z,96925.28
2023-02-01T00:13:49.461Z,96927.19
2023-02-01T00:14:50.970Z,96929.00
2023-02-01T00:15:52.549Z,96924.25
2023-02-01T00:16:54.167Z,96925.56
2023-02-01T00:17:56.256Z,96933.22
2023-02-01T00:19:06.309Z,96927.91
2023-02-01T00:20:08.959Z,96927.44
2023-02-01T00:21:14.591Z,96924.78
2023-02-01T00:22:16.145Z,96936.94
2023-02-01T00:23:17.688Z,96930.06
2023-02-01T00:24:19.267Z,96931.94
2023-02-01T00:25:20.874Z,96932.16
2023-02-01T00:26:31.435Z,96931.53
2023-02-01T00:27:33.058Z,96933.91
2023-02-01T00:28:34.823Z,96928.34
2023-02-01T00:29:36.385Z,96936.25
2023-02-01T00:30:37.947Z,96931.22
2023-02-01T00:31:39.885Z,96930.44
2023-02-01T00:32:41.462Z,96922.94
2023-02-01T00:33:43.089Z,96930.31
2023-02-01T00:34:44.696Z,96924.53
2023-02-01T00:35:46.276Z,96929.00
2023-02-01T00:36:49.057Z,96920.19
2023-02-01T00:37:50.598Z,96914.84
2023-02-01T00:38:52.126Z,96915.84
2023-02-01T00:39:55.888Z,96926.44
2023-02-01T00:41:07.949Z,96921.72
2023-02-01T00:42:09.513Z,96918.00
2023-02-01T00:43:11.027Z,96919.50
2023-02-01T00:44:12.610Z,96922.63
2023-02-01T00:45:14.166Z,96920.91
2023-02-01T00:46:17.728Z,96921.16
2023-02-01T00:47:20.939Z,96919.44
2023-02-01T00:48:22.458Z,96922.91
2023-02-01T00:49:24.003Z,96920.72
2023-02-01T00:50:25.522Z,96923.91
2023-02-01T00:51:29.318Z,96918.31
2023-02-01T00:52:30.870Z,96917.88
2023-02-01T00:53:32.961Z,96910.19
2023-02-01T00:54:34.910Z,96914.16
2023-02-01T00:55:36.457Z,96916.50
2023-02-01T00:56:37.964Z,96915.72
2023-02-01T00:57:39.497Z,96918.38
2023-02-01T00:58:45.179Z,96910.19
2023-02-01T00:59:47.346Z,96915.56
2023-02-01T01:00:50.482Z,96916.63
2023-02-01T01:01:52.196Z,96921.97
2023-02-01T01:02:54.330Z,96915.25
2023-02-01T01:04:00.667Z,96914.78
2023-02-01T01:05:02.392Z,96911.13
2023-02-01T01:06:10.819Z,96915.47
2023-02-01T01:07:12.386Z,96908.66
2023-02-01T01:08:14.770Z,96905.53
2023-02-01T01:09:16.277Z,96910.88
2023-02-01T01:10:17.997Z,96908.28
2023-02-01T01:11:22.602Z,96912.50
2023-02-01T01:12:24.200Z,96913.56
2023-02-01T01:13:26.012Z,96909.97
2023-02-01T01:14:27.600Z,96907.84
2023-02-01T01:15:29.212Z,96910.50
2023-02-01T01:16:32.068Z,96904.94
2023-02-01T01:17:33.642Z,96906.00
2023-02-01T01:18:36.201Z,96905.72
2023-02-01T01:19:37.835Z,96901.28
2023-02-01T01:20:41.184Z,96897.88
2023-02-01T01:21:42.697Z,96901.09
2023-02-01T01:22:44.234Z,96903.75
2023-02-01T01:23:46.829Z,96897.88
2023-02-01T01:24:48.359Z,96905.31
2023-02-01T01:25:50.352Z,96902.13
2023-02-01T01:26:52.004Z,96905.25
2023-02-01T01:27:53.617Z,96902.06
2023-02-01T01:29:00.036Z,96898.31
2023-02-01T01:30:02.266Z,96903.88
2023-02-01T01:31:04.052Z,96904.66
2023-02-01T01:32:05.710Z,96903.09
2023-02-01T01:33:07.499Z,96908.44
2023-02-01T01:34:09.634Z,96901.53
2023-02-01T01:35:11.808Z,96899.69
2023-02-01T01:36:13.729Z,96905.25
2023-02-01T01:37:15.303Z,96903.19
2023-02-01T01:38:16.861Z,96910.06
2023-02-01T01:39:18.431Z,96904.50
2023-02-01T01:40:20.278Z,96900.34
2023-02-01T01:41:24.993Z,96905.59
2023-02-01T01:42:26.535Z,96910.16
2023-02-01T01:43:56.287Z,96910.69
2023-02-01T01:45:07.776Z,96905.44
2023-02-01T01:46:09.322Z,96910.72
2023-02-01T01:47:11.045Z,96914.22
2023-02-01T01:48:15.827Z,96905.25
2023-02-01T01:49:26.461Z,96913.22
2023-02-01T01:50:52.934Z,96917.97
2023-02-01T01:51:59.877Z,96908.97
2023-02-01T01:53:04.369Z,96911.41
2023-02-01T01:54:18.305Z,96922.53
2023-02-01T01:55:21.421Z,96910.44
2023-02-01T01:56:23.477Z,96904.63
2023-02-01T01:57:27.217Z,96911.75
2023-02-01T01:58:32.951Z,96911.50
2023-02-01T01:59:38.446Z,96909.34
2023-02-01T02:00:40.291Z,96912.00
2023-02-01T02:01:42.235Z,96913.91
2023-02-01T02:02:47.637Z,96911.81
2023-02-01T02:03:49.619Z,96914.97
2023-02-01T02:04:51.399Z,96919.97
2023-02-01T02:05:56.325Z,96914.41
2023-02-01T02:07:03.905Z,96906.22
2023-02-01T02:08:05.542Z,96912.03
2023-02-01T02:09:07.737Z,96912.56
2023-02-01T02:10:14.386Z,96910.47
2023-02-01T02:11:17.855Z,96918.69
2023-02-01T02:12:19.630Z,96915.56
2023-02-01T02:13:21.320Z,96918.25
2023-02-01T02:14:24.901Z,96923.53
2023-02-01T02:15:26.840Z,96922.69
2023-02-01T02:16:45.661Z,96916.63
2023-02-01T02:18:16.531Z,96921.59
2023-02-01T02:19:36.508Z,96919.22
2023-02-01T02:20:55.069Z,96923.16
2023-02-01T02:22:41.415Z,96930.56
2023-02-01T02:23:54.959Z,96926.41
2023-02-01T02:25:15.193Z,96920.63
2023-02-01T02:26:36.129Z,96921.69
2023-02-01T02:27:40.366Z,96928.00
2023-02-01T02:29:18.994Z,96917.38
2023-02-01T02:30:42.570Z,96918.97
2023-02-01T02:32:38.353Z,96918.69
2023-02-01T02:33:59.173Z,96916.78
2023-02-01T02:35:19.218Z,96920.41
2023-02-01T02:36:20.734Z,96917.72
2023-02-01T02:37:50.163Z,96914.03
2023-02-01T02:39:09.302Z,96919.34
2023-02-01T02:40:23.119Z,96920.16
2023-02-01T02:42:07.655Z,96913.03
2023-02-01T02:43:41.105Z,96916.28
2023-02-01T02:45:20.770Z,96912.63
2023-02-01T02:46:46.013Z,96919.72
2023-02-01T02:48:10.535Z,96915.84
2023-02-01T02:49:43.094Z,96917.38
2023-02-01T02:51:06.528Z,96912.59
2023-02-01T02:52:34.928Z,96912.13
2023-02-01T02:54:08.553Z,96915.34
2023-02-01T02:55:11.309Z,96909.53
2023-02-01T02:56:32.506Z,96917.97
2023-02-01T02:57:57.374Z,96915.84
2023-02-01T02:59:18.646Z,96914.78
2023-02-01T03:00:43.252Z,96914.28
2023-02-01T03:02:03.787Z,96918.28
2023-02-01T03:03:25.050Z,96916.72
2023-02-01T03:04:26.694Z,96925.00
2023-02-01T03:05:37.709Z,96923.97
2023-02-01T03:06:39.881Z,96921.88
2023-02-01T03:08:26.571Z,96918.53
2023-02-01T03:09:35.177Z,96924.63
2023-02-01T03:10:53.111Z,96920.69
2023-02-01T03:12:19.114Z,96919.41
2023-02-01T03:13:43.254Z,96921.00
2023-02-01T03:14:48.231Z,96924.72
2023-02-01T03:15:54.863Z,96918.88
2023-02-01T03:17:03.222Z,96925.75
2023-02-01T03:18:14.113Z,96923.63
2023-02-01T03:19:26.488Z,96930.50
2023-02-01T03:20:30.471Z,96939.47
2023-02-01T03:22:56.560Z,96936.81
2023-02-01T03:24:03.423Z,96937.09
2023-02-01T03:25:22.308Z,96940.00
2023-02-01T03:26:27.100Z,96944.22
2023-02-01T03:27:35.010Z,96946.34
2023-02-01T03:28:40.237Z,96952.69
2023-02-01T03:29:55.762Z,96958.25
2023-02-01T03:30:57.743Z,96953.22
2023-02-01T03:31:59.540Z,96964.34
2023-02-01T03:33:05.913Z,96958.53
2023-02-01T03:34:07.549Z,96965.13
2023-02-01T03:35:09.308Z,96964.09
2023-02-01T03:36:20.251Z,96962.25
2023-02-01T03:37:27.136Z,96962.25
2023-02-01T03:38:34.250Z,96962.75
2023-02-01T03:39:39.996Z,96965.94
2023-02-01T03:40:45.814Z,96972.81
2023-02-01T03:42:00.154Z,96973.31
2023-02-01T03:43:06.112Z,96974.34
2023-02-01T03:44:16.585Z,96970.66
2023-02-01T03:45:21.340Z,96969.63
2023-02-01T03:46:39.976Z,96970.41
2023-02-01T03:47:45.797Z,96973.31
2023-02-01T03:48:49.585Z,96971.22
2023-02-01T03:49:53.731Z,96975.94
2023-02-01T03:51:00.477Z,96971.72
2023-02-01T03:52:04.689Z,96963.78
2023-02-01T03:53:14.402Z,96968.53
2023-02-01T03:54:18.399Z,96968.53
2023-02-01T03:55:24.878Z,96969.03
2023-02-01T03:56:29.307Z,96973.28
2023-02-01T03:57:35.854Z,96980.69
2023-02-01T03:58:37.496Z,96976.94
2023-02-01T03:59:43.128Z,96975.63
2023-02-01T04:00:53.242Z,96981.16
2023-02-01T04:01:54.783Z,96972.72
2023-02-01T04:02:56.537Z,96976.41
2023-02-01T04:03:59.090Z,96972.97
2023-02-01T04:05:00.692Z,96983.28
2023-02-01T04:06:02.233Z,96979.28
2023-02-01T04:07:03.929Z,96981.66
2023-02-01T04:08:06.214Z,96978.22
2023-02-01T04:09:07.789Z,96973.72
2023-02-01T04:10:10.641Z,96972.91
2023-02-01T04:11:12.252Z,96968.69
2023-02-01T04:12:13.890Z,96961.81
2023-02-01T04:13:15.555Z,96956.22
2023-02-01T04:14:17.117Z,96950.69
2023-02-01T04:15:19.024Z,96950.16
2023-02-01T04:16:20.614Z,96953.06
2023-02-01T04:17:22.162Z,96949.84
2023-02-01T04:18:23.923Z,96953.25
2023-02-01T04:19:25.534Z,96952.16
2023-02-01T04:20:27.184Z,96951.84
2023-02-01T04:21:29.806Z,96951.31
2023-02-01T04:22:31.583Z,96946.28
2023-02-01T04:23:33.164Z,96949.19
2023-02-01T04:24:34.685Z,96953.97
2023-02-01T04:25:36.186Z,96947.63
2023-02-01T04:26:37.798Z,96952.88
2023-02-01T04:28:39.920Z,96950.75
2023-02-01T04:29:42.375Z,96950.25
2023-02-01T04:30:44.021Z,96950.75
2023-02-01T04:31:45.727Z,96957.06
2023-02-01T04:32:47.816Z,96952.25
2023-02-01T04:33:49.352Z,96946.13
2023-02-01T04:34:50.896Z,96943.00
2023-02-01T04:35:52.523Z,96935.81
2023-02-01T04:36:54.051Z,96944.81
2023-02-01T04:37:55.573Z,96941.09
2023-02-01T04:38:57.088Z,96941.09
2023-02-01T04:39:58.687Z,96937.94
2023-02-01T04:41:00.645Z,96944.31
2023-02-01T04:42:02.204Z,96938.53
2023-02-01T04:43:04.632Z,96938.88
2023-02-01T04:44:06.459Z,96948.09
2023-02-01T04:45:08.417Z,96943.84
2023-02-01T04:46:10.096Z,96939.69
2023-02-01T04:47:11.925Z,96947.09
2023-02-01T04:48:13.447Z,96950.53
2023-02-01T04:49:15.998Z,96946.53
2023-02-01T04:50:17.565Z,96949.19
2023-02-01T04:51:19.164Z,96958.97
2023-02-01T04:52:20.709Z,96957.63
2023-02-01T04:53:22.272Z,96952.91
2023-02-01T04:54:23.793Z,96960.88
2023-02-01T04:55:25.495Z,96956.06
2023-02-01T04:56:27.111Z,96952.41
2023-02-01T04:57:28.635Z,96960.59
2023-02-01T04:58:30.246Z,96947.13
2023-02-01T04:59:31.909Z,96947.91
2023-02-01T05:00:33.685Z,96938.94
2023-02-01T05:01:35.360Z,96936.78
2023-02-01T05:02:36.965Z,96945.00
2023-02-01T05:03:38.532Z,96943.38
2023-02-01T05:04:40.215Z,96944.19
2023-02-01T05:05:41.933Z,96946.03
2023-02-01T05:06:43.465Z,96944.44
2023-02-01T05:07:47.679Z,96945.47
2023-02-01T05:08:49.528Z,96944.16
2023-02-01T05:09:51.191Z,96948.88
2023-02-01T05:10:52.787Z,96949.69
2023-02-01T05:12:12.985Z,96951.25
2023-02-01T05:13:33.207Z,96948.09
2023-02-01T05:14:34.888Z,96945.97
2023-02-01T05:15:36.455Z,96943.06
2023-02-01T05:16:38.189Z,96942.28
2023-02-01T05:17:41.295Z,96940.13
2023-02-01T05:18:42.862Z,96945.69
2023-02-01T05:19:44.571Z,96944.88
2023-02-01T05:20:46.118Z,96942.75
2023-02-01T05:21:47.650Z,96951.19
2023-02-01T05:22:49.249Z,96944.06
2023-02-01T05:24:09.517Z,96949.06
2023-02-01T05:25:11.091Z,96947.72
2023-02-01T05:26:12.641Z,96946.69
2023-02-01T05:27:14.272Z,96948.78
2023-02-01T05:28:15.846Z,96943.75
2023-02-01T05:29:18.638Z,96948.28
2023-02-01T05:30:20.708Z,96953.81
2023-02-01T05:31:23.305Z,96954.59
2023-02-01T05:32:25.127Z,96951.16
2023-02-01T05:33:26.691Z,96954.59
2023-02-01T05:34:28.333Z,96965.19
2023-02-01T05:35:29.966Z,96967.03
2023-02-01T05:36:31.978Z,96973.38
2023-02-01T05:37:33.534Z,96964.38
2023-02-01T05:38:35.195Z,96975.47
2023-02-01T05:39:36.723Z,96978.38
2023-02-01T05:40:38.495Z,96980.22
2023-02-01T05:41:40.134Z,96973.88
2023-02-01T05:42:41.644Z,96974.09
2023-02-01T05:43:43.290Z,96972.75
2023-02-01T05:44:44.852Z,96968.50
2023-02-01T05:45:46.381Z,96981.22
2023-02-01T05:46:50.077Z,96978.56
2023-02-01T05:47:51.792Z,96980.69
2023-02-01T05:48:53.444Z,96987.03
2023-02-01T05:49:55.072Z,96987.00
2023-02-01T05:50:56.791Z,96988.59
2023-02-01T05:52:00.266Z,96995.97
2023-02-01T05:53:02.122Z,96991.69
2023-02-01T05:54:03.819Z,96988.25
2023-02-01T05:55:05.953Z,96997.50
2023-02-01T05:56:08.082Z,97002.25
2023-02-01T05:57:09.598Z,97003.81
2023-02-01T05:58:11.189Z,97007.00
2023-02-01T05:59:12.959Z,97009.13
2023-02-01T06:00:14.699Z,97005.94
2023-02-01T06:01:16.305Z,97008.56
2023-02-01T06:02:17.925Z,97009.59
2023-02-01T06:03:20.010Z,97010.09
2023-02-01T06:04:21.577Z,97013.78
2023-02-01T06:05:23.447Z,97015.34
2023-02-01T06:06:25.000Z,97013.78
2023-02-01T06:07:29.331Z,97015.34
2023-02-01T06:08:31.160Z,97018.28
2023-02-01T06:09:32.758Z,97010.84
2023-02-01T06:10:34.770Z,97019.84
2023-02-01T06:11:36.336Z,97021.72
2023-02-01T06:12:37.880Z,97019.31
2023-02-01T06:13:39.715Z,97018.50
2023-02-01T06:14:41.895Z,97021.94
2023-02-01T06:15:45.084Z,97023.75
2023-02-01T06:16:47.524Z,97029.56
2023-02-01T06:17:49.124Z,97033.31
2023-02-01T06:18:50.749Z,97030.16
2023-02-01T06:19:52.334Z,97031.72
2023-02-01T06:20:57.914Z,97031.72
2023-02-01T06:21:59.436Z,97027.47
2023-02-01T06:23:01.008Z,97022.94
2023-02-01T06:24:02.641Z,97035.94
2023-02-01T06:25:09.079Z,97028.03
2023-02-01T06:26:10.640Z,97029.56
2023-02-01T06:27:12.868Z,97031.47
2023-02-01T06:28:14.398Z,97028.78
2023-02-01T06:29:15.917Z,97035.34
2023-02-01T06:30:17.887Z,97039.03
2023-02-01T06:31:19.546Z,97037.97
2023-02-01T06:32:21.120Z,97033.47
2023-02-01T06:33:22.744Z,97037.41
2023-02-01T06:34:24.635Z,97038.19
2023-02-01T06:35:27.206Z,97037.41
2023-02-01T06:36:28.704Z,97034.25
2023-02-01T06:37:30.503Z,97036.34
2023-02-01T06:38:32.557Z,97033.94
2023-02-01T06:39:34.506Z,97032.59
2023-02-01T06:40:36.557Z,97035.75
2023-02-01T06:41:38.073Z,97029.66
2023-02-01T06:42:39.717Z,97031.25
2023-02-01T06:43:41.387Z,97031.47
2023-02-01T06:44:43.039Z,97026.72
2023-02-01T06:45:44.680Z,97025.63
2023-02-01T06:46:46.266Z,97037.25
2023-02-01T06:47:47.805Z,97027.72
2023-02-01T06:48:50.347Z,97022.66
2023-02-01T06:49:51.918Z,97022.09
2023-02-01T06:50:53.562Z,97021.81
2023-02-01T06:51:55.098Z,97026.56
2023-02-01T06:52:56.678Z,97023.88
2023-02-01T06:53:58.781Z,97032.88
2023-02-01T06:55:01.805Z,97027.00
2023-02-01T06:56:05.202Z,97029.94
2023-02-01T06:57:07.620Z,97032.03
2023-02-01T06:58:11.134Z,97029.38
2023-02-01T06:59:16.508Z,97030.97
2023-02-01T07:00:19.310Z,97029.38
2023-02-01T07:01:21.251Z,97017.22
2023-02-01T07:02:22.836Z,97032.31
2023-02-01T07:03:24.829Z,97025.91
2023-02-01T07:04:26.440Z,97020.81
2023-02-01T07:05:27.998Z,97024.78
2023-02-01T07:06:29.668Z,97023.19
2023-02-01T07:07:31.181Z,97024.78
2023-02-01T07:08:34.988Z,97024.41
2023-02-01T07:09:36.553Z,97025.41
2023-02-01T07:10:38.795Z,97032.78
2023-02-01T07:11:44.131Z,97046.31
2023-02-01T07:12:45.652Z,97039.47
2023-02-01T07:13:47.272Z,97041.47
2023-02-01T07:14:48.797Z,97038.78
2023-02-01T07:15:50.315Z,97040.91
2023-02-01T07:16:52.178Z,97039.25
2023-02-01T07:17:56.476Z,97042.38
2023-02-01T07:18:58.118Z,97038.72
2023-02-01T07:20:00.839Z,97034.41
2023-02-01T07:21:02.435Z,97045.75
2023-02-01T07:22:04.026Z,97046.28
2023-02-01T07:23:05.669Z,97051.84
2023-02-01T07:24:07.525Z,97052.06
2023-02-01T07:25:09.470Z,97052.66
2023-02-01T07:26:14.046Z,97061.34
2023-02-01T07:27:15.696Z,97066.06
2023-02-01T07:28:17.744Z,97071.84
2023-02-01T07:29:20.429Z,97068.53
2023-02-01T07:30:22.254Z,97071.72
2023-02-01T07:31:26.350Z,97070.69
2023-02-01T07:32:27.968Z,97078.88
2023-02-01T07:33:29.558Z,97071.59
2023-02-01T07:34:31.900Z,97072.03
2023-02-01T07:35:33.426Z,97079.13
2023-02-01T07:36:35.490Z,97073.84
2023-02-01T07:37:37.086Z,97075.75
2023-02-01T07:38:38.811Z,97073.38
2023-02-01T07:39:40.314Z,97085.06
2023-02-01T07:40:42.814Z,97090.09
2023-02-01T07:41:44.335Z,97095.41
2023-02-01T07:42:45.879Z,97090.69
2023-02-01T07:43:47.520Z,97090.22
2023-02-01T07:44:49.064Z,97098.25
2023-02-01T07:45:54.893Z,97095.06
2023-02-01T07:46:56.527Z,97095.06
2023-02-01T07:47:58.362Z,97089.75
2023-02-01T07:49:00.229Z,97089.75
2023-02-01T07:50:01.827Z,97097.22
2023-02-01T07:51:10.540Z,97091.63
2023-02-01T07:52:14.110Z,97091.41
2023-02-01T07:53:15.817Z,97103.09
2023-02-01T07:54:17.580Z,97102.53
2023-02-01T07:55:19.142Z,97101.97
2023-02-01T07:56:23.474Z,97102.53
2023-02-01T07:57:25.055Z,97100.94
2023-02-01T07:58:26.863Z,97103.88
2023-02-01T07:59:28.437Z,97101.53
2023-02-01T08:00:48.650Z,97113.16
2023-02-01T08:01:50.404Z,97103.09
2023-02-01T08:02:51.914Z,97107.84
2023-02-01T08:03:56.179Z,97110.19
2023-02-01T08:04:57.763Z,97109.44
2023-02-01T08:05:59.422Z,97104.13
2023-02-01T08:07:00.923Z,97111.28
2023-02-01T08:08:02.446Z,97118.47
2023-02-01T08:09:05.340Z,97109.44
2023-02-01T08:10:11.715Z,97105.41
2023-02-01T08:11:14.666Z,97105.13
2023-02-01T08:13:36.344Z,97113.03
2023-02-01T08:14:37.958Z,97110.81
2023-02-01T08:15:39.497Z,97124.00
2023-02-01T08:16:41.160Z,97115.50
2023-02-01T08:17:52.670Z,97121.25
2023-02-01T08:18:55.182Z,97119.09
2023-02-01T08:19:56.767Z,97125.47
2023-02-01T08:20:58.428Z,97127.34
2023-02-01T08:22:00.326Z,97130.72
2023-02-01T08:23:01.899Z,97135.47
2023-02-01T08:24:09.821Z,97124.06
2023-02-01T08:25:12.587Z,97123.28
2023-02-01T08:26:21.792Z,97136.53
2023-02-01T08:27:23.407Z,97137.63
2023-02-01T08:28:24.992Z,97138.19
2023-02-01T08:29:26.587Z,97132.88
2023-02-01T08:30:28.607Z,97136.34
2023-02-01T08:31:31.349Z,97132.38
2023-02-01T08:32:34.406Z,97134.03
2023-02-01T08:33:37.970Z,97131.31
2023-02-01T08:34:39.617Z,97140.53
2023-02-01T08:35:44.131Z,97138.69
2023-02-01T08:36:45.912Z,97131.31
2023-02-01T08:37:47.484Z,97133.44
2023-02-01T08:38:49.212Z,97128.72
2023-02-01T08:39:51.687Z,97128.72
2023-02-01T08:40:53.205Z,97134.81
2023-02-01T08:42:13.270Z,97130.00
2023-02-01T08:43:15.373Z,97127.13
2023-02-01T08:44:16.902Z,97127.72
2023-02-01T08:45:20.931Z,97119.69
2023-02-01T08:46:23.869Z,97122.81
2023-02-01T08:47:25.560Z,97121.69
2023-02-01T08:48:27.140Z,97115.78
2023-02-01T08:49:28.639Z,97123.47
2023-02-01T08:50:30.315Z,97121.06
2023-02-01T08:51:31.929Z,97118.91
2023-02-01T08:52:33.503Z,97126.00
2023-02-01T08:53:35.517Z,97126.88
2023-02-01T08:54:37.187Z,97130.59
2023-02-01T08:55:38.743Z,97136.94
2023-02-01T08:56:40.400Z,97130.47
2023-02-01T08:57:42.964Z,97133.63
2023-02-01T08:58:44.966Z,97131.69
2023-02-01T08:59:46.559Z,97138.81
2023-02-01T09:00:49.229Z,97134.50
2023-02-01T09:01:50.746Z,97132.34
2023-02-01T09:02:52.311Z,97132.75
2023-02-01T09:03:53.859Z,97131.13
2023-02-01T09:04:57.110Z,97133.19
2023-02-01T09:06:06.885Z,97133.41
2023-02-01T09:07:09.925Z,97135.19
2023-02-01T09:08:16.067Z,97133.97
2023-02-01T09:09:17.611Z,97141.94
2023-02-01T09:10:33.485Z,97138.94
2023-02-01T09:11:36.375Z,97131.75
2023-02-01T09:12:38.769Z,97133.34
2023-02-01T09:13:40.346Z,97135.47
2023-02-01T09:14:42.464Z,97140.78
2023-02-01T09:15:44.024Z,97138.72
2023-02-01T09:16:45.537Z,97134.19
2023-02-01T09:17:47.192Z,97137.69
2023-02-01T09:18:56.732Z,97138.81
2023-02-01T09:20:11.049Z,97139.94
2023-02-01T09:21:12.615Z,97137.78
2023-02-01T09:22:15.944Z,97144.59
2023-02-01T09:23:17.574Z,97141.94
2023-02-01T09:24:19.139Z,97137.63
2023-02-01T09:25:20.796Z,97141.06
2023-02-01T09:26:31.466Z,97137.06
2023-02-01T09:27:34.187Z,97138.13
2023-02-01T09:28:35.836Z,97140.88
2023-02-01T09:29:37.414Z,97132.91
2023-02-01T09:30:39.210Z,97127.00
2023-02-01T09:31:44.123Z,97126.34
2023-02-01T09:32:51.194Z,97128.41
2023-02-01T09:33:52.756Z,97126.47
2023-02-01T09:34:54.329Z,97125.09
2023-02-01T09:36:05.236Z,97127.19
2023-02-01T09:37:06.789Z,97122.94
2023-02-01T09:38:08.413Z,97118.13
2023-02-01T09:39:09.963Z,97120.19
2023-02-01T09:40:16.287Z,97118.03
2023-02-01T09:41:46.705Z,97115.47
2023-02-01T09:43:04.432Z,97123.34
2023-02-01T09:44:21.060Z,97121.22
2023-02-01T09:45:40.834Z,97124.94
2023-02-01T09:46:42.457Z,97124.84
2023-02-01T09:48:02.900Z,97120.44
2023-02-01T09:49:15.380Z,97111.38
2023-02-01T09:50:22.495Z,97118.28
2023-02-01T09:51:30.805Z,97118.28
2023-02-01T09:52:39.495Z,97112.16
2023-02-01T09:53:49.191Z,97120.25
2023-02-01T09:54:59.514Z,97116.69
2023-02-01T09:56:07.505Z,97113.75
2023-02-01T09:57:20.571Z,97111.38
2023-02-01T09:58:34.247Z,97106.25
2023-02-01T09:59:39.242Z,97104.50
2023-02-01T10:00:44.915Z,97106.16
2023-02-01T10:01:46.614Z,97101.97
2023-02-01T10:02:48.305Z,97098.69
2023-02-01T10:03:51.131Z,97099.59
2023-02-01T10:04:56.385Z,97088.88
2023-02-01T10:06:00.808Z,97079.72
2023-02-01T10:07:14.589Z,97071.63
2023-02-01T10:08:41.053Z,97073.38
2023-02-01T10:09:53.403Z,97076.72
2023-02-01T10:11:05.996Z,97074.06
2023-02-01T10:12:32.288Z,97078.59
2023-02-01T10:13:58.766Z,97078.41
2023-02-01T10:15:18.077Z,97075.84
2023-02-01T10:16:25.724Z,97074.50
2023-02-01T10:17:47.222Z,97073.72
2023-02-01T10:19:21.216Z,97080.28
2023-02-01T10:20:31.643Z,97070.22
2023-02-01T10:21:48.679Z,97069.59
2023-02-01T10:23:22.713Z,97062.03
2023-02-01T10:24:23.291Z,97062.56
2023-02-01T10:25:33.839Z,97066.28
2023-02-01T10:26:40.539Z,97071.06
2023-02-01T10:27:42.678Z,97066.19
2023-02-01T10:28:49.301Z,97070.38
2023-02-01T10:29:56.665Z,97065.94
2023-02-01T10:30:59.954Z,97067.47
2023-02-01T10:32:02.834Z,97068.41
2023-02-01T10:33:31.164Z,97068.63
2023-02-01T10:34:35.949Z,97063.72
2023-02-01T10:35:37.636Z,97057.69
2023-02-01T10:36:51.380Z,97068.16
2023-02-01T10:37:53.174Z,97059.94
2023-02-01T10:38:54.943Z,97063.94
2023-02-01T10:39:58.637Z,97070.84
2023-02-01T10:41:12.048Z,97066.47
2023-02-01T10:42:13.595Z,97070.59
2023-02-01T10:43:15.251Z,97058.16
2023-02-01T10:44:24.720Z,97055.97
2023-02-01T10:45:29.526Z,97063.50
2023-02-01T10:46:32.810Z,97061.63
2023-02-01T10:47:34.433Z,97064.91
2023-02-01T10:48:36.664Z,97062.09
2023-02-01T10:50:19.827Z,97071.06
2023-02-01T10:51:25.958Z,97064.75
2023-02-01T10:53:13.986Z,97063.78
2023-02-01T10:54:21.492Z,97074.28
2023-02-01T10:55:50.634Z,97064.75
2023-02-01T10:56:54.382Z,97063.56
2023-02-01T10:57:58.769Z,97071.06
2023-02-01T10:59:04.164Z,97063.72
2023-02-01T11:00:20.921Z,97062.97
2023-02-01T11:01:34.725Z,97058.91
2023-02-01T11:02:36.791Z,97059.19
2023-02-01T11:03:50.560Z,97060.75
2023-02-01T11:05:03.219Z,97057.63
2023-02-01T11:06:12.758Z,97057.94
2023-02-01T11:07:25.572Z,97057.97
2023-02-01T11:08:27.389Z,97047.50
2023-02-01T11:09:29.000Z,97047.31
2023-02-01T11:10:41.657Z,97044.53
2023-02-01T11:11:49.408Z,97033.06
2023-02-01T11:12:55.296Z,97035.44
2023-02-01T11:14:02.293Z,97037.94
2023-02-01T11:15:24.467Z,97034.66
2023-02-01T11:16:35.886Z,97034.03
2023-02-01T11:17:43.224Z,97022.78
2023-02-01T11:18:44.820Z,97014.78
2023-02-01T11:19:47.249Z,97015.56
2023-02-01T11:20:50.378Z,97014.63
2023-02-01T11:21:53.704Z,97004.91
2023-02-01T11:22:57.115Z,97008.91
2023-02-01T11:24:06.352Z,97000.00
2023-02-01T11:25:11.971Z,97006.78
2023-02-01T11:26:26.355Z,97006.00
2023-02-01T11:27:28.745Z,97002.06
2023-02-01T11:28:33.659Z,96994.72
2023-02-01T11:29:42.217Z,96995.75
2023-02-01T11:30:46.696Z,96997.03
2023-02-01T11:31:48.737Z,96997.97
2023-02-01T11:32:51.692Z,96999.72
2023-02-01T11:34:07.651Z,96990.50
2023-02-01T11:35:17.585Z,96997.22
2023-02-01T11:36:26.309Z,97001.59
2023-02-01T11:37:42.218Z,97000.97
2023-02-01T11:39:09.710Z,96991.75
2023-02-01T11:40:17.230Z,96987.84
2023-02-01T11:41:25.483Z,96998.53
2023-02-01T11:42:29.276Z,96988.28
2023-02-01T11:43:30.879Z,96989.88
2023-02-01T11:44:37.194Z,96988.00
2023-02-01T11:45:38.911Z,96985.81
2023-02-01T11:46:40.509Z,96988.59
2023-02-01T11:47:42.540Z,96994.03
2023-02-01T11:48:44.607Z,96994.81
2023-02-01T11:49:47.721Z,96994.81
2023-02-01T11:51:12.758Z,96997.97
2023-02-01T11:52:30.491Z,96998.41
2023-02-01T11:53:53.067Z,96995.69
2023-02-01T11:55:18.087Z,97004.28
2023-02-01T11:56:56.711Z,96994.53
2023-02-01T11:58:17.199Z,96998.38
2023-02-01T11:59:39.057Z,97003.56
2023-02-01T12:01:18.714Z,97003.56
2023-02-01T12:02:20.555Z,96997.44
2023-02-01T12:03:35.817Z,96993.50
2023-02-01T12:04:46.242Z,97002.00
2023-02-01T12:06:13.665Z,96992.53
2023-02-01T12:07:19.955Z,96988.16
2023-02-01T12:08:42.406Z,96992.91
2023-02-01T12:09:55.990Z,96997.00
2023-02-01T12:11:15.875Z,96994.66
2023-02-01T12:12:23.078Z,96995.59
2023-02-01T12:13:31.092Z,96987.31
2023-02-01T12:15:00.187Z,96986.25
2023-02-01T12:16:18.720Z,96978.91
2023-02-01T12:17:45.014Z,96984.22
2023-02-01T12:19:04.763Z,96977.66
2023-02-01T12:20:22.249Z,96989.97
2023-02-01T12:21:32.318Z,96975.25
2023-02-01T12:22:48.045Z,96974.00
2023-02-01T12:24:06.608Z,96973.66
2023-02-01T12:25:23.199Z,96966.09
2023-02-01T12:26:44.066Z,96963.94
2023-02-01T12:27:58.016Z,96968.47
2023-02-01T12:29:09.587Z,96957.66
2023-02-01T12:30:11.389Z,96946.19
2023-02-01T12:31:15.987Z,96946.97
2023-02-01T12:32:30.592Z,96958.59
2023-02-01T12:34:07.717Z,96957.50
2023-02-01T12:35:39.153Z,96956.41
2023-02-01T12:36:59.008Z,96954.19
2023-02-01T12:38:19.420Z,96956.66
2023-02-01T12:39:32.260Z,96954.75
2023-02-01T12:40:51.856Z,96950.06
2023-02-01T12:42:02.407Z,96951.66
2023-02-01T12:43:11.268Z,96950.41
2023-02-01T12:44:53.113Z,96941.00
2023-02-01T12:46:07.966Z,96939.44
2023-02-01T12:47:23.951Z,96938.81
2023-02-01T12:48:31.282Z,96940.69
2023-02-01T12:49:54.222Z,96938.53
2023-02-01T12:51:00.671Z,96942.75
2023-02-01T12:52:11.043Z,96942.63
2023-02-01T12:53:27.129Z,96937.56
2023-02-01T12:54:48.222Z,96934.28
2023-02-01T12:55:58.077Z,96935.84
2023-02-01T12:57:12.310Z,96933.31
2023-02-01T12:58:18.997Z,96936.16
2023-02-01T12:59:28.047Z,96929.88
2023-02-01T13:00:36.341Z,96927.06
2023-02-01T13:01:41.966Z,96927.69
2023-02-01T13:02:57.871Z,96928.94
2023-02-01T13:04:21.406Z,96917.31
2023-02-01T13:05:31.000Z,96924.38